createdAt,value
2017-11-14T00:00:38.746Z,95.36
2017-11-14T00:03:04.837Z,95.20
2017-11-14T00:05:30.900Z,95.24
2017-11-14T00:07:57.294Z,95.33
2017-11-14T00:10:23.956Z,94.67
2017-11-14T00:12:50.062Z,94.60
2017-11-14T00:15:16.180Z,94.79
2017-11-14T00:17:42.286Z,95.11
2017-11-14T00:20:08.756Z,95.44
2017-11-14T00:22:35.126Z,95.41
2017-11-14T00:25:01.256Z,94.50
2017-11-14T00:27:27.361Z,93.97
2017-11-14T00:29:53.464Z,94.23
2017-11-14T00:32:20.211Z,94.91
2017-11-14T00:34:46.368Z,94.75
2017-11-14T00:37:12.476Z,95.35
2017-11-14T00:39:38.570Z,95.82
2017-11-14T00:42:04.764Z,96.06
2017-11-14T00:44:31.242Z,95.94
2017-11-14T00:46:57.486Z,96.42
2017-11-14T00:49:23.693Z,96.33
2017-11-14T00:51:49.850Z,96.39
2017-11-14T00:54:16.000Z,96.34
2017-11-14T00:56:42.553Z,96.25
2017-11-14T00:59:08.661Z,96.10
2017-11-14T01:01:34.766Z,96.26
2017-11-14T01:04:01.802Z,95.96
2017-11-14T01:06:27.923Z,95.72
2017-11-14T01:08:54.602Z,94.68
2017-11-14T01:11:20.799Z,93.99
2017-11-14T01:13:46.966Z,93.94
2017-11-14T01:16:13.084Z,94.58
2017-11-14T01:18:39.213Z,94.59
2017-11-14T01:21:05.814Z,94.95
2017-11-14T01:23:31.952Z,95.16
2017-11-14T01:25:58.696Z,95.10
2017-11-14T01:28:24.816Z,95.77
2017-11-14T01:30:50.944Z,96.19
2017-11-14T01:33:17.449Z,95.61
2017-11-14T01:35:43.746Z,94.85
2017-11-14T01:38:09.883Z,93.63
2017-11-14T01:40:36.171Z,94.21
2017-11-14T01:43:02.276Z,94.41
2017-11-14T01:45:29.589Z,93.57
2017-11-14T01:47:55.707Z,94.30
2017-11-14T01:50:21.847Z,94.78
2017-11-14T01:52:48.098Z,95.03
2017-11-14T01:55:14.588Z,95.04
2017-11-14T01:57:41.166Z,95.63
2017-11-14T02:00:07.432Z,95.38
2017-11-14T02:02:33.588Z,95.26
2017-11-14T02:04:59.857Z,95.27
2017-11-14T02:07:26.020Z,95.53
2017-11-14T02:09:52.101Z,95.28
2017-11-14T02:12:18.268Z,95.09
2017-11-14T02:14:44.375Z,94.90
2017-11-14T02:17:10.531Z,94.95
2017-11-14T02:19:36.684Z,95.43
2017-11-14T02:22:03.199Z,95.23
2017-11-14T02:24:29.263Z,95.47
2017-11-14T02:27:00.308Z,95.27
2017-11-14T02:29:26.379Z,96.35
2017-11-14T02:31:52.496Z,96.43
2017-11-14T02:34:18.942Z,97.26
2017-11-14T02:36:45.260Z,97.38
2017-11-14T02:39:11.628Z,97.05
2017-11-14T02:41:37.744Z,97.15
2017-11-14T02:44:03.816Z,97.09
2017-11-14T02:46:30.275Z,97.21
2017-11-14T02:48:56.728Z,97.48
2017-11-14T02:51:22.905Z,97.53
2017-11-14T02:53:48.979Z,97.93
2017-11-14T02:56:15.142Z,97.75
2017-11-14T02:58:41.728Z,97.89
2017-11-14T03:01:07.956Z,97.70
2017-11-14T03:03:34.518Z,97.72
2017-11-14T03:06:00.677Z,98.04
2017-11-14T03:08:26.816Z,97.84
2017-11-14T03:10:53.363Z,97.85
2017-11-14T03:13:19.495Z,97.70
2017-11-14T03:15:45.702Z,98.14
2017-11-14T03:18:11.967Z,98.46
2017-11-14T03:20:38.136Z,98.00
2017-11-14T03:23:04.716Z,98.16
2017-11-14T03:25:30.874Z,97.67
2017-11-14T03:27:56.989Z,97.57
2017-11-14T03:30:23.081Z,97.47
2017-11-14T03:32:49.147Z,97.13
2017-11-14T03:35:15.559Z,97.13
2017-11-14T03:37:41.608Z,97.42
2017-11-14T03:40:07.676Z,97.51
2017-11-14T03:42:34.199Z,97.37
2017-11-14T03:45:00.305Z,96.87
2017-11-14T03:47:26.387Z,96.42
2017-11-14T03:49:52.488Z,95.88
2017-11-14T03:52:18.560Z,95.35
2017-11-14T03:54:44.972Z,95.44
2017-11-14T03:57:11.079Z,94.76
2017-11-14T03:59:37.249Z,94.35
2017-11-14T04:02:03.380Z,94.39
2017-11-14T04:04:29.456Z,94.32
2017-11-14T04:06:55.967Z,95.02
2017-11-14T04:09:22.173Z,95.34
2017-11-14T04:11:48.236Z,95.90
2017-11-14T04:14:14.463Z,95.99
2017-11-14T04:16:40.508Z,96.01
2017-11-14T04:19:06.955Z,96.30
2017-11-14T04:21:33.052Z,96.85
2017-11-14T04:23:59.135Z,97.16
2017-11-14T04:26:25.223Z,97.07
2017-11-14T04:28:51.317Z,97.05
2017-11-14T04:31:17.801Z,96.50
2017-11-14T04:33:43.956Z,95.74
2017-11-14T04:36:10.135Z,95.30
2017-11-14T04:38:36.223Z,94.63
2017-11-14T04:41:02.305Z,94.76
2017-11-14T04:43:29.009Z,94.45
2017-11-14T04:45:55.154Z,94.39
2017-11-14T04:48:21.311Z,94.66
2017-11-14T04:50:47.539Z,94.58
2017-11-14T04:53:13.735Z,94.33
2017-11-14T04:55:40.299Z,94.15
2017-11-14T04:58:06.590Z,94.24
2017-11-14T05:00:32.699Z,94.37
2017-11-14T05:02:58.795Z,94.45
2017-11-14T05:05:24.853Z,94.60
2017-11-14T05:07:51.306Z,94.25
2017-11-14T05:10:17.401Z,94.34
2017-11-14T05:12:43.526Z,93.99
2017-11-14T05:15:09.695Z,93.61
2017-11-14T05:17:38.283Z,94.02
2017-11-14T05:20:06.071Z,93.25
2017-11-14T05:22:32.188Z,92.80
2017-11-14T05:24:58.256Z,93.34
2017-11-14T05:27:24.362Z,93.70
2017-11-14T05:29:50.680Z,93.37
2017-11-14T05:32:17.146Z,92.74
2017-11-14T05:34:43.359Z,92.54
2017-11-14T05:37:09.652Z,92.51
2017-11-14T05:39:36.133Z,92.59
2017-11-14T05:42:02.402Z,93.20
2017-11-14T05:44:28.514Z,92.98
2017-11-14T05:46:54.727Z,92.67
2017-11-14T05:49:20.867Z,93.39
2017-11-14T05:51:47.534Z,93.72
2017-11-14T05:54:13.649Z,93.00
2017-11-14T05:56:39.789Z,92.99
2017-11-14T05:59:05.969Z,93.12
2017-11-14T06:01:32.224Z,93.17
2017-11-14T06:03:58.845Z,92.87
2017-11-14T06:06:24.948Z,93.56
2017-11-14T06:08:51.158Z,93.65
2017-11-14T06:11:17.268Z,94.37
2017-11-14T06:13:43.392Z,94.67
2017-11-14T06:16:10.515Z,94.48
2017-11-14T06:18:36.736Z,94.62
2017-11-14T06:21:02.947Z,94.69
2017-11-14T06:23:29.105Z,94.67
2017-11-14T06:25:55.272Z,94.28
2017-11-14T06:28:21.834Z,94.33
2017-11-14T06:30:48.073Z,94.56
2017-11-14T06:33:14.254Z,94.80
2017-11-14T06:35:40.421Z,94.86
2017-11-14T06:38:06.612Z,95.22
2017-11-14T06:40:33.089Z,95.02
2017-11-14T06:42:59.261Z,94.82
2017-11-14T06:45:25.425Z,94.49
2017-11-14T06:47:52.170Z,94.10
2017-11-14T06:50:18.288Z,94.46
2017-11-14T06:52:44.418Z,94.07
2017-11-14T06:55:10.625Z,93.70
2017-11-14T06:57:37.127Z,93.82
2017-11-14T07:00:03.905Z,93.50
2017-11-14T07:02:30.096Z,93.71
2017-11-14T07:04:56.328Z,93.92
2017-11-14T07:07:23.338Z,94.07
2017-11-14T07:09:49.649Z,93.82
2017-11-14T07:12:16.053Z,93.25
2017-11-14T07:14:42.396Z,93.32
2017-11-14T07:17:09.350Z,93.04
2017-11-14T07:19:36.140Z,93.85
2017-11-14T07:22:02.547Z,93.93
2017-11-14T07:24:28.881Z,94.11
2017-11-14T07:26:55.918Z,94.00
2017-11-14T07:29:22.495Z,93.69
2017-11-14T07:31:48.813Z,93.79
2017-11-14T07:34:15.104Z,92.92
2017-11-14T07:36:41.505Z,92.81
2017-11-14T07:39:10.573Z,92.83
2017-11-14T07:41:37.190Z,93.76
2017-11-14T07:44:03.655Z,93.78
2017-11-14T07:46:29.941Z,93.35
2017-11-14T07:48:56.274Z,93.17
2017-11-14T07:51:22.934Z,92.67
2017-11-14T07:53:49.179Z,92.66
2017-11-14T07:56:15.432Z,92.58
2017-11-14T07:58:41.673Z,92.11
2017-11-14T08:01:08.160Z,93.11
2017-11-14T08:03:35.593Z,92.00
2017-11-14T08:06:02.101Z,92.14
2017-11-14T08:08:28.361Z,92.86
2017-11-14T08:10:54.537Z,92.96
2017-11-14T08:13:20.762Z,93.07
2017-11-14T08:15:47.727Z,93.81
2017-11-14T08:18:14.035Z,93.54
2017-11-14T08:20:40.249Z,92.56
2017-11-14T08:23:06.450Z,93.54
2017-11-14T08:25:32.631Z,93.59
2017-11-14T08:27:59.254Z,93.45
2017-11-14T08:30:26.465Z,93.19
2017-11-14T08:32:52.612Z,92.98
2017-11-14T08:35:18.797Z,91.86
2017-11-14T08:37:44.984Z,90.76
2017-11-14T08:40:11.624Z,91.06
2017-11-14T08:42:38.182Z,91.84
2017-11-14T08:45:05.623Z,91.30
2017-11-14T08:47:31.926Z,91.00
2017-11-14T08:49:58.094Z,91.37
2017-11-14T08:52:24.560Z,90.90
2017-11-14T08:54:50.777Z,89.39
2017-11-14T08:57:16.979Z,89.45
2017-11-14T08:59:43.467Z,89.21
2017-11-14T09:02:09.626Z,90.02
2017-11-14T09:04:35.768Z,91.11
2017-11-14T09:07:02.330Z,91.54
2017-11-14T09:09:28.439Z,91.82
2017-11-14T09:11:54.966Z,92.56
2017-11-14T09:14:21.113Z,92.22
2017-11-14T09:16:47.246Z,91.59
2017-11-14T09:19:13.685Z,91.00
2017-11-14T09:21:39.872Z,90.79
2017-11-14T09:24:05.985Z,90.80
2017-11-14T09:26:32.175Z,92.33
2017-11-14T09:28:58.347Z,92.04
2017-11-14T09:31:24.834Z,93.18
2017-11-14T09:33:50.935Z,94.04
2017-11-14T09:36:17.061Z,93.51
2017-11-14T09:38:43.882Z,93.09
2017-11-14T09:41:10.131Z,92.59
2017-11-14T09:43:36.243Z,92.29
2017-11-14T09:46:02.807Z,92.08
2017-11-14T09:48:28.982Z,91.42
2017-11-14T09:50:55.132Z,91.95
2017-11-14T09:53:21.332Z,92.09
2017-11-14T09:55:47.480Z,91.59
2017-11-14T09:58:13.940Z,91.84
2017-11-14T10:00:39.984Z,92.02
2017-11-14T10:03:06.058Z,92.14
2017-11-14T10:05:32.181Z,91.82
2017-11-14T10:07:58.236Z,90.55
2017-11-14T10:10:24.773Z,90.05
2017-11-14T10:12:50.942Z,88.88
2017-11-14T10:15:17.240Z,87.91
2017-11-14T10:17:43.372Z,87.04
2017-11-14T10:20:09.434Z,86.17
2017-11-14T10:22:35.818Z,85.40
2017-11-14T10:25:01.954Z,86.19
2017-11-14T10:27:28.174Z,86.13
2017-11-14T10:29:54.306Z,86.14
2017-11-14T10:32:20.468Z,86.85
2017-11-14T10:34:46.907Z,86.63
2017-11-14T10:37:12.938Z,85.68
2017-11-14T10:39:39.008Z,85.38
2017-11-14T10:42:05.406Z,86.41
2017-11-14T10:44:31.578Z,84.83
2017-11-14T10:46:58.462Z,85.37
2017-11-14T10:49:24.566Z,85.32
2017-11-14T10:51:50.655Z,85.28
2017-11-14T10:54:17.156Z,86.26
2017-11-14T10:56:43.293Z,86.17
2017-11-14T10:59:09.423Z,85.99
2017-11-14T11:01:35.509Z,85.90
2017-11-14T11:04:01.564Z,85.80
2017-11-14T11:06:28.078Z,85.65
2017-11-14T11:08:54.157Z,85.89
2017-11-14T11:11:20.304Z,84.85
2017-11-14T11:13:46.501Z,84.43
2017-11-14T11:16:12.778Z,84.33
2017-11-14T11:18:39.330Z,84.75
2017-11-14T11:21:05.384Z,85.77
2017-11-14T11:23:31.455Z,86.54
2017-11-14T11:25:57.581Z,84.78
2017-11-14T11:28:23.648Z,84.41
2017-11-14T11:30:50.133Z,83.95
2017-11-14T11:33:16.371Z,83.98
2017-11-14T11:35:42.504Z,82.54
2017-11-14T11:38:09.070Z,83.10
2017-11-14T11:40:35.213Z,83.51
2017-11-14T11:43:01.999Z,83.76
2017-11-14T11:45:28.141Z,82.77
2017-11-14T11:47:54.195Z,83.55
2017-11-14T11:50:20.283Z,83.41
2017-11-14T11:52:46.365Z,83.59
2017-11-14T11:55:12.786Z,83.42
2017-11-14T11:57:38.856Z,82.97
2017-11-14T12:00:04.959Z,82.04
2017-11-14T12:02:31.105Z,82.44
2017-11-14T12:04:57.233Z,82.52
2017-11-14T12:07:23.739Z,83.05
2017-11-14T12:09:49.828Z,83.49
2017-11-14T12:12:15.919Z,82.68
2017-11-14T12:14:42.048Z,83.64
2017-11-14T12:17:08.280Z,83.52
2017-11-14T12:19:34.788Z,83.35
2017-11-14T12:22:00.798Z,84.20
2017-11-14T12:24:26.952Z,84.06
2017-11-14T12:26:53.557Z,84.09
2017-11-14T12:29:19.639Z,84.64
2017-11-14T12:31:45.701Z,84.21
2017-11-14T12:34:11.754Z,84.57
2017-11-14T12:36:37.940Z,83.83
2017-11-14T12:39:04.498Z,83.32
2017-11-14T12:41:30.627Z,82.73
2017-11-14T12:43:56.776Z,82.85
2017-11-14T12:46:22.895Z,82.26
2017-11-14T12:48:49.004Z,81.20
2017-11-14T12:51:15.489Z,80.74
2017-11-14T12:53:41.871Z,80.00
2017-11-14T12:56:07.973Z,80.11
2017-11-14T12:58:34.094Z,80.65
2017-11-14T13:01:00.203Z,80.91
2017-11-14T13:03:26.633Z,81.85
2017-11-14T13:05:52.732Z,81.22
2017-11-14T13:08:18.841Z,80.29
2017-11-14T13:10:45.341Z,81.82
2017-11-14T13:13:11.526Z,82.94
2017-11-14T13:15:37.625Z,83.25
2017-11-14T13:18:04.134Z,82.06
2017-11-14T13:20:30.263Z,82.02
2017-11-14T13:22:56.380Z,82.87
2017-11-14T13:25:22.828Z,83.50
2017-11-14T13:27:48.912Z,84.71
2017-11-14T13:30:14.953Z,84.06
2017-11-14T13:32:41.004Z,82.84
2017-11-14T13:35:07.124Z,81.59
2017-11-14T13:37:33.619Z,81.53
2017-11-14T13:39:59.695Z,81.18
2017-11-14T13:42:25.795Z,80.30
2017-11-14T13:44:51.906Z,77.17
2017-11-14T13:47:18.119Z,77.92
2017-11-14T13:49:44.648Z,77.98
2017-11-14T13:52:10.811Z,77.69
2017-11-14T13:54:36.938Z,78.37
2017-11-14T13:57:03.141Z,79.16
2017-11-14T13:59:29.225Z,79.21
2017-11-14T14:01:55.657Z,78.91
2017-11-14T14:04:21.757Z,76.83
2017-11-14T14:06:47.853Z,76.54
2017-11-14T14:09:14.482Z,77.19
2017-11-14T14:11:40.703Z,78.15
2017-11-14T14:14:07.171Z,78.75
2017-11-14T14:16:33.618Z,79.27
2017-11-14T14:18:59.705Z,79.47
2017-11-14T14:21:25.837Z,79.92
2017-11-14T14:23:52.379Z,80.44
2017-11-14T14:26:18.533Z,80.66
2017-11-14T14:28:44.685Z,81.12
2017-11-14T14:31:10.774Z,80.98
2017-11-14T14:33:36.888Z,81.54
2017-11-14T14:36:03.369Z,81.66
2017-11-14T14:38:29.463Z,82.14
2017-11-14T14:40:55.746Z,82.59
2017-11-14T14:43:21.937Z,82.30
2017-11-14T14:45:48.084Z,82.77
2017-11-14T14:48:17.804Z,83.49
2017-11-14T14:50:44.202Z,84.57
2017-11-14T14:53:10.491Z,85.44
2017-11-14T14:55:36.845Z,85.25
2017-11-14T14:58:03.037Z,85.73
2017-11-14T15:00:29.767Z,85.85
2017-11-14T15:02:56.979Z,87.04
2017-11-14T15:05:23.222Z,87.72
2017-11-14T15:07:49.529Z,87.97
2017-11-14T15:10:15.957Z,88.56
2017-11-14T15:12:42.749Z,88.58
2017-11-14T15:15:09.036Z,88.53
2017-11-14T15:17:35.363Z,88.46
2017-11-14T15:20:01.859Z,87.53
2017-11-14T15:22:28.259Z,86.95
2017-11-14T15:24:54.904Z,87.64
2017-11-14T15:27:21.287Z,86.37
2017-11-14T15:29:54.693Z,86.34
2017-11-14T15:32:21.069Z,87.84
2017-11-14T15:34:48.563Z,86.26
2017-11-14T15:37:14.874Z,86.57
2017-11-14T15:39:41.221Z,86.35
2017-11-14T15:42:07.949Z,86.46
2017-11-14T15:44:34.236Z,86.35
2017-11-14T15:47:00.505Z,85.30
2017-11-14T15:49:27.162Z,84.96
2017-11-14T15:51:53.366Z,84.57
2017-11-14T15:54:19.646Z,84.57
2017-11-14T15:56:45.834Z,84.33
2017-11-14T15:59:12.216Z,84.79
2017-11-14T16:01:38.798Z,84.41
2017-11-14T16:04:05.068Z,86.32
2017-11-14T16:06:31.227Z,87.09
2017-11-14T16:08:57.699Z,88.39
2017-11-14T16:11:23.991Z,88.13
2017-11-14T16:13:50.508Z,88.51
2017-11-14T16:16:17.466Z,88.66
2017-11-14T16:18:43.711Z,88.09
2017-11-14T16:21:09.946Z,89.35
2017-11-14T16:23:36.194Z,89.54
2017-11-14T16:26:02.882Z,89.75
2017-11-14T16:28:29.168Z,89.56
2017-11-14T16:30:56.093Z,88.88
2017-11-14T16:33:22.462Z,87.75
2017-11-14T16:35:48.954Z,87.31
2017-11-14T16:38:15.497Z,87.94
2017-11-14T16:40:41.626Z,88.92
2017-11-14T16:43:07.829Z,89.07
2017-11-14T16:48:07.287Z,89.03
2017-11-14T16:50:33.918Z,89.37
2017-11-14T16:53:00.135Z,89.05
2017-11-14T16:55:26.367Z,88.31
2017-11-14T16:57:52.616Z,88.25
2017-11-14T17:00:18.744Z,88.75
2017-11-14T17:02:45.425Z,89.32
2017-11-14T17:05:11.668Z,89.85
2017-11-14T17:07:37.908Z,90.16
2017-11-14T17:10:04.826Z,89.23
2017-11-14T17:12:31.082Z,88.99
2017-11-14T17:14:57.336Z,88.92
2017-11-14T17:17:23.576Z,88.66
2017-11-14T17:19:49.759Z,88.69
2017-11-14T17:22:16.388Z,88.70
2017-11-14T17:24:42.681Z,88.86
2017-11-14T17:27:09.389Z,88.90
2017-11-14T17:29:39.888Z,89.30
2017-11-14T17:32:06.239Z,89.45
2017-11-14T17:34:32.819Z,89.75
2017-11-14T17:36:59.183Z,90.26
2017-11-14T17:39:25.470Z,90.72
2017-11-14T17:41:52.065Z,91.92
2017-11-14T17:44:18.341Z,92.28
2017-11-14T17:46:44.555Z,92.99
2017-11-14T17:49:11.254Z,93.66
2017-11-14T17:51:37.528Z,92.39
2017-11-14T17:54:03.696Z,91.70
2017-11-14T17:56:30.293Z,90.99
2017-11-14T17:58:57.078Z,90.54
2017-11-14T18:01:23.261Z,90.42
2017-11-14T18:03:49.438Z,91.15
2017-11-14T18:06:15.586Z,91.49
2017-11-14T18:08:42.390Z,91.58
2017-11-14T18:11:08.873Z,92.54
2017-11-14T18:13:41.576Z,93.19
2017-11-14T18:16:09.138Z,93.30
2017-11-14T18:18:35.531Z,93.33
2017-11-14T18:21:01.795Z,93.07
2017-11-14T18:23:29.087Z,92.47
2017-11-14T18:25:56.494Z,91.77
2017-11-14T18:28:23.326Z,91.85
2017-11-14T18:30:49.718Z,92.04
2017-11-14T18:33:16.581Z,92.50
2017-11-14T18:35:43.263Z,92.48
2017-11-14T18:38:09.520Z,92.53
2017-11-14T18:40:36.138Z,92.82
2017-11-14T18:43:02.347Z,92.46
2017-11-14T18:45:28.773Z,91.42
2017-11-14T18:47:55.117Z,90.57
2017-11-14T18:50:21.502Z,90.41
2017-11-14T18:52:48.195Z,90.75
2017-11-14T18:55:14.498Z,91.50
2017-11-14T18:57:40.906Z,92.49
2017-11-14T19:00:07.220Z,91.33
2017-11-14T19:02:33.535Z,91.17
2017-11-14T19:05:00.143Z,90.96
2017-11-14T19:07:26.419Z,91.62
2017-11-14T19:09:52.786Z,91.36
2017-11-14T19:12:19.214Z,91.21
2017-11-14T19:14:45.599Z,91.50
2017-11-14T19:17:12.440Z,91.64
2017-11-14T19:19:38.998Z,92.36
2017-11-14T19:22:11.837Z,92.31
2017-11-14T19:24:39.709Z,92.56
2017-11-14T19:27:06.250Z,92.60
2017-11-14T19:29:32.801Z,92.74
2017-11-14T19:31:59.441Z,92.65
2017-11-14T19:34:26.915Z,92.77
2017-11-14T19:36:53.692Z,93.00
2017-11-14T19:39:21.230Z,93.34
2017-11-14T19:41:48.234Z,93.53
2017-11-14T19:44:15.145Z,93.74
2017-11-14T19:46:41.981Z,94.29
2017-11-14T19:49:08.523Z,94.56
2017-11-14T19:51:35.282Z,94.91
2017-11-14T19:54:01.676Z,95.03
2017-11-14T19:56:28.176Z,95.17
2017-11-14T19:58:54.633Z,95.14
2017-11-14T20:01:21.142Z,95.21
2017-11-14T20:03:48.134Z,95.29
2017-11-14T20:16:02.504Z,95.33
2017-11-14T20:18:29.058Z,95.22
2017-11-14T20:20:55.459Z,95.16
2017-11-14T20:23:22.110Z,94.77
2017-11-14T20:25:49.779Z,94.49
2017-11-14T20:28:16.672Z,94.04
2017-11-14T20:30:43.126Z,93.75
2017-11-14T20:33:10.393Z,93.65
2017-11-14T20:35:36.837Z,93.54
2017-11-14T20:38:03.422Z,93.65
2017-11-14T20:40:30.492Z,93.81
2017-11-14T20:42:56.926Z,93.97
2017-11-14T20:45:23.412Z,93.76
2017-11-14T20:47:50.630Z,93.37
2017-11-14T20:50:16.947Z,92.97
2017-11-14T20:52:43.712Z,93.00
2017-11-14T20:55:10.005Z,92.91
2017-11-14T20:57:36.232Z,93.04
2017-11-14T21:00:02.949Z,93.48
2017-11-14T21:02:29.195Z,93.57
2017-11-14T21:04:55.844Z,92.92
2017-11-14T21:07:22.048Z,92.88
2017-11-14T21:09:48.257Z,92.75
2017-11-14T21:12:16.268Z,92.78
2017-11-14T21:14:42.473Z,92.91
2017-11-14T21:17:08.680Z,93.65
2017-11-14T21:19:35.280Z,92.87
2017-11-14T21:22:02.045Z,92.74
2017-11-14T21:24:28.246Z,93.08
2017-11-14T21:26:54.813Z,92.57
2017-11-14T21:29:20.922Z,92.52
2017-11-14T21:31:47.053Z,92.38
2017-11-14T21:34:13.811Z,91.88
2017-11-14T21:36:39.939Z,91.70
2017-11-14T21:39:06.056Z,91.57
2017-11-14T21:41:32.593Z,91.80
2017-11-14T21:44:01.949Z,91.69
2017-11-14T21:46:28.289Z,91.82
2017-11-14T21:48:54.997Z,91.92
2017-11-14T21:51:21.231Z,92.14
2017-11-14T21:53:47.347Z,92.00
2017-11-14T21:56:13.538Z,92.17
2017-11-14T21:58:40.905Z,92.12
2017-11-14T22:01:07.435Z,92.09
2017-11-14T22:03:33.580Z,92.33
2017-11-14T22:06:00.546Z,91.95
2017-11-14T22:08:26.716Z,92.04
2017-11-14T22:10:52.881Z,91.57
2017-11-14T22:13:19.419Z,91.76
2017-11-14T22:15:45.569Z,91.71
2017-11-14T22:18:11.725Z,91.92
2017-11-14T22:20:38.283Z,91.60
2017-11-14T22:23:04.438Z,91.60
2017-11-14T22:25:30.629Z,91.48
2017-11-14T22:27:56.806Z,91.56
2017-11-14T22:30:23.015Z,91.63
2017-11-14T22:32:49.603Z,91.55
2017-11-14T22:35:15.832Z,91.86
2017-11-14T22:37:41.979Z,92.03
2017-11-14T22:40:08.129Z,92.06
2017-11-14T22:42:34.297Z,92.20
2017-11-14T22:45:00.751Z,91.93
2017-11-14T22:47:26.981Z,92.07
2017-11-14T22:49:53.125Z,91.94
2017-11-14T22:52:19.317Z,91.51
2017-11-14T22:54:45.499Z,91.27
2017-11-14T22:57:12.072Z,91.58
2017-11-14T22:59:38.143Z,91.50
2017-11-14T23:02:04.320Z,90.98
2017-11-14T23:04:30.566Z,91.06
2017-11-14T23:06:56.804Z,91.29
2017-11-14T23:09:23.313Z,91.28
2017-11-14T23:11:49.517Z,91.03
2017-11-14T23:14:15.683Z,91.11
2017-11-14T23:16:42.210Z,91.11
2017-11-14T23:19:08.332Z,91.00
2017-11-14T23:21:34.513Z,91.18
2017-11-14T23:24:00.751Z,91.39
2017-11-14T23:26:26.884Z,91.22
2017-11-14T23:28:53.443Z,91.18
2017-11-14T23:31:19.588Z,91.17
2017-11-14T23:33:45.730Z,91.52
2017-11-14T23:36:11.892Z,91.38
2017-11-14T23:38:37.997Z,90.94
2017-11-14T23:41:04.483Z,91.56
2017-11-14T23:43:30.616Z,91.31
2017-11-14T23:45:56.777Z,90.51
2017-11-14T23:48:23.409Z,90.32
2017-11-14T23:50:49.542Z,90.12
2017-11-14T23:53:15.691Z,90.35
2017-11-14T23:55:41.898Z,90.37
2017-11-14T23:58:08.030Z,90.42
